Time;durP1;ratioP1;P1;durP2;ratioP2;P2;SDS_P1;SDS_P2;PMS_P1;PMS_P2;Temp;Humidity;BMP_temperature;BMP_pressure;BME280_temperature;BME280_humidity;BME280_pressure;Samples;Min_cycle;Max_cycle;Signal;HPM_P1;HPM_P2
2021/09/16 00:01:51;;;;;;;19.13;14.25;;;;;;;24.06;63.06;95300.03;5010205;28;20030;-68
2021/09/16 00:04:16;;;;;;;28.05;15.63;;;;;;;24.07;62.97;95296.13;5008248;28;20121;-69
2021/09/16 00:06:42;;;;;;;25.15;17.30;;;;;;;23.94;62.99;95281.34;5009019;28;20045;-69
2021/09/16 00:09:07;;;;;;;24.00;14.20;;;;;;;23.99;62.67;95289.13;5008479;28;20065;-68
2021/09/16 00:11:33;;;;;;;26.65;17.50;;;;;;;24.11;62.79;95319.44;5007415;28;20117;-69
2021/09/16 00:13:58;;;;;;;22.40;16.90;;;;;;;24.11;62.99;95300.41;5010485;28;20036;-69
2021/09/16 00:16:24;;;;;;;25.00;17.38;;;;;;;24.12;62.73;95303.91;5008110;28;20038;-69
2021/09/16 00:18:49;;;;;;;26.73;18.33;;;;;;;24.17;62.57;95317.09;5007829;28;20030;-69
2021/09/16 00:21:15;;;;;;;28.40;17.85;;;;;;;24.19;62.61;95309.34;5008381;28;20563;-69
2021/09/16 00:23:40;;;;;;;24.88;18.15;;;;;;;24.16;62.78;95299.25;5008299;28;20037;-69
2021/09/16 00:26:05;;;;;;;25.92;16.48;;;;;;;24.25;62.14;95315.16;5007167;28;20034;-68
2021/09/16 00:28:31;;;;;;;22.77;17.10;;;;;;;24.29;62.85;95302.34;5009085;28;20133;-69
2021/09/16 00:30:57;;;;;;;21.73;16.33;;;;;;;24.18;62.40;95285.28;5008054;28;20046;-67
2021/09/16 00:33:22;;;;;;;24.25;16.20;;;;;;;24.17;62.30;95286.44;5007777;28;20125;-68
2021/09/16 00:35:47;;;;;;;24.38;17.75;;;;;;;24.31;62.46;95300.81;5008315;28;20125;-68
2021/09/16 00:38:13;;;;;;;27.30;16.85;;;;;;;24.17;62.48;95273.63;5008342;28;20029;-69
2021/09/16 00:40:38;;;;;;;33.35;18.52;;;;;;;24.31;62.25;95292.66;5009673;28;20437;-68
2021/09/16 00:43:04;;;;;;;28.00;18.45;;;;;;;24.28;62.28;95287.97;5007986;28;20030;-68
2021/09/16 00:45:30;;;;;;;26.25;18.20;;;;;;;24.32;62.24;95291.47;5008024;28;20050;-70
2021/09/16 00:47:55;;;;;;;25.00;16.13;;;;;;;24.26;62.00;95293.03;5008072;28;20580;-69
2021/09/16 00:50:24;;;;;;;26.08;17.48;;;;;;;24.24;61.93;95292.63;5006748;28;20026;-69
2021/09/16 00:52:51;;;;;;;26.23;17.05;;;;;;;24.19;62.26;95292.25;5009728;28;20030;-69
2021/09/16 00:55:17;;;;;;;30.58;16.98;;;;;;;23.94;61.90;95270.50;5006957;28;20053;-69
2021/09/16 00:57:49;;;;;;;22.27;15.20;;;;;;;24.05;61.90;95299.22;5007066;28;20038;-68
2021/09/16 01:00:15;;;;;;;24.33;17.33;;;;;;;23.87;62.02;95287.56;5007640;28;20125;-69
2021/09/16 01:02:40;;;;;;;22.88;14.00;;;;;;;23.74;62.29;95283.66;5007228;28;20125;-69
2021/09/16 01:05:06;;;;;;;36.00;19.10;;;;;;;23.81;62.21;95297.25;5007919;28;20061;-68
2021/09/16 01:07:31;;;;;;;25.67;16.10;;;;;;;23.76;62.47;95298.41;5009932;28;20026;-69
2021/09/16 01:10:02;;;;;;;20.00;13.93;;;;;;;23.68;62.25;95296.81;5007616;28;20042;-69
2021/09/16 01:12:28;;;;;;;23.70;14.88;;;;;;;23.59;62.63;95301.81;5007790;28;20026;-69
2021/09/16 01:14:53;;;;;;;28.42;17.67;;;;;;;23.52;62.74;95293.66;5007729;28;20384;-69
2021/09/16 01:17:19;;;;;;;23.48;15.88;;;;;;;23.46;62.79;95290.53;4992901;28;20684;-70
2021/09/16 01:19:44;;;;;;;21.70;15.25;;;;;;;23.48;63.05;95299.06;5009149;28;20034;-69
2021/09/16 01:22:22;;;;;;;48.58;23.45;;;;;;;23.48;62.57;95299.06;5007561;28;20053;-69
2021/09/16 01:24:49;;;;;;;27.45;17.67;;;;;;;23.56;62.62;95308.03;5007527;28;20042;-69
2021/09/16 01:27:15;;;;;;;34.10;19.48;;;;;;;23.62;62.60;95301.06;5007759;28;20088;-69
2021/09/16 01:29:40;;;;;;;34.03;20.25;;;;;;;23.66;62.72;95306.53;5007431;28;20038;-70
2021/09/16 01:32:07;;;;;;;21.30;16.42;;;;;;;23.66;62.29;95304.59;5006931;28;20026;-69
2021/09/16 01:34:33;;;;;;;24.10;15.80;;;;;;;23.35;62.30;95260.66;4987596;28;20027;-68
2021/09/16 01:36:59;;;;;;;20.77;15.18;;;;;;;23.57;62.44;95285.13;4996031;28;20045;-69
2021/09/16 01:39:25;;;;;;;24.98;15.93;;;;;;;23.55;62.10;95287.47;4987279;28;20544;-68
2021/09/16 01:41:51;;;;;;;20.40;15.40;;;;;;;23.42;62.25;95275.41;4987886;28;20443;-69
2021/09/16 01:44:17;;;;;;;29.52;17.25;;;;;;;23.46;62.05;95281.63;4987612;28;20026;-68
2021/09/16 01:46:43;;;;;;;24.35;16.20;;;;;;;23.45;62.28;95280.84;4999803;28;20030;-68
2021/09/16 01:49:09;;;;;;;23.60;15.98;;;;;;;23.27;62.33;95272.63;5006689;28;20045;-70
2021/09/16 01:51:35;;;;;;;37.35;20.00;;;;;;;23.35;61.97;95285.06;5007297;28;20034;-69
2021/09/16 01:54:02;;;;;;;19.33;14.60;;;;;;;23.23;61.95;95277.25;5007366;28;20041;-67
2021/09/16 01:56:28;;;;;;;22.80;15.88;;;;;;;23.31;61.73;95289.69;5007646;28;20045;-68
2021/09/16 01:58:54;;;;;;;25.50;15.70;;;;;;;23.26;61.95;95281.16;5008875;28;20037;-69
2021/09/16 02:01:20;;;;;;;26.77;17.25;;;;;;;23.24;62.00;95278.06;5008830;28;20492;-71
2021/09/16 02:03:46;;;;;;;28.73;17.10;;;;;;;23.16;62.17;95269.09;5010585;28;20041;-68
2021/09/16 02:06:12;;;;;;;22.50;16.60;;;;;;;23.17;62.59;95278.00;5010947;28;20092;-67
2021/09/16 02:08:37;;;;;;;23.00;16.75;;;;;;;23.17;62.15;95257.06;5010819;28;20048;-67
2021/09/16 02:11:02;;;;;;;39.15;20.60;;;;;;;23.24;62.41;95270.69;5012805;28;20022;-67
2021/09/16 02:13:28;;;;;;;38.25;19.75;;;;;;;23.25;62.34;95269.53;5011068;28;20065;-67
2021/09/16 02:15:54;;;;;;;26.42;16.30;;;;;;;23.29;62.23;95272.25;5010837;28;20108;-67
2021/09/16 02:18:19;;;;;;;37.28;17.90;;;;;;;23.20;61.84;95261.75;5010514;28;20037;-67
2021/09/16 02:20:45;;;;;;;21.10;15.32;;;;;;;23.18;62.44;95249.72;5010483;28;20034;-67
2021/09/16 02:23:10;;;;;;;27.02;15.90;;;;;;;23.24;61.80;95259.84;5010510;28;20029;-68
2021/09/16 02:25:36;;;;;;;33.80;19.67;;;;;;;23.21;62.35;95255.16;5010804;28;20022;-68
2021/09/16 02:28:01;;;;;;;44.47;21.80;;;;;;;23.04;62.37;95226.03;5009765;28;20038;-69
2021/09/16 02:30:27;;;;;;;39.63;20.15;;;;;;;23.24;62.17;95253.63;5010073;28;20128;-68
2021/09/16 02:32:52;;;;;;;20.05;14.70;;;;;;;23.21;61.86;95263.31;5009792;28;20045;-69
2021/09/16 02:35:17;;;;;;;26.02;15.57;;;;;;;23.19;62.46;95271.06;5010420;28;20491;-68
2021/09/16 02:37:43;;;;;;;25.25;16.13;;;;;;;23.09;62.22;95263.66;5012453;28;20022;-68
2021/09/16 02:40:10;;;;;;;24.92;16.80;;;;;;;23.14;62.33;95282.28;5009955;28;20477;-68
2021/09/16 02:42:37;;;;;;;24.88;16.35;;;;;;;23.10;62.30;95278.75;5010166;28;20079;-68
2021/09/16 02:45:04;;;;;;;22.90;13.48;;;;;;;23.14;61.88;95287.69;5010409;28;20038;-67
2021/09/16 02:47:29;;;;;;;24.75;15.57;;;;;;;23.11;62.17;95285.75;5009626;28;20427;-67
2021/09/16 02:49:55;;;;;;;21.48;14.65;;;;;;;23.08;62.49;95281.06;5011671;28;20022;-68
2021/09/16 02:52:20;;;;;;;30.60;17.48;;;;;;;23.11;62.31;95274.88;5010099;28;20074;-68
2021/09/16 02:54:45;;;;;;;36.92;19.00;;;;;;;23.08;62.04;95254.72;5009977;28;20046;-68
2021/09/16 02:57:11;;;;;;;34.35;18.50;;;;;;;23.12;61.73;95262.88;5010191;28;20744;-68
2021/09/16 02:59:36;;;;;;;30.00;16.42;;;;;;;22.91;61.77;95235.66;5009607;28;20068;-68
2021/09/16 03:02:02;;;;;;;26.10;16.73;;;;;;;23.02;62.07;95264.38;5011562;28;20424;-68
2021/09/16 03:04:27;;;;;;;17.17;14.15;;;;;;;23.05;61.63;95271.75;5009458;28;20045;-68
2021/09/16 03:06:53;;;;;;;25.95;14.60;;;;;;;23.00;62.00;95266.69;5010030;28;20061;-68
2021/09/16 03:09:18;;;;;;;36.33;19.42;;;;;;;22.89;61.95;95265.88;5009788;28;20050;-68
2021/09/16 03:11:44;;;;;;;24.75;16.45;;;;;;;22.93;62.28;95263.97;5009082;28;20030;-68
2021/09/16 03:14:09;;;;;;;27.75;16.52;;;;;;;22.94;62.07;95260.09;5008468;28;20659;-69
2021/09/16 03:16:35;;;;;;;34.47;18.23;;;;;;;23.12;62.02;95276.44;5012019;28;20095;-69
2021/09/16 03:19:00;;;;;;;20.63;15.40;;;;;;;23.13;61.89;95272.56;5009068;28;20554;-68
2021/09/16 03:21:25;;;;;;;21.00;15.25;;;;;;;23.19;62.23;95273.78;5009557;28;20037;-68
2021/09/16 03:23:51;;;;;;;21.98;15.90;;;;;;;23.25;61.91;95264.09;5009300;28;20072;-68
2021/09/16 03:26:16;;;;;;;21.92;15.77;;;;;;;23.31;61.96;95259.06;5009566;28;20116;-68
2021/09/16 03:28:41;;;;;;;30.42;17.63;;;;;;;23.41;61.56;95268.41;5011191;28;20026;-69
2021/09/16 03:31:07;;;;;;;19.05;12.90;;;;;;;23.44;61.92;95264.91;5008913;28;20049;-69
2021/09/16 03:33:33;;;;;;;31.00;18.25;;;;;;;23.49;61.66;95256.41;5009018;28;20072;-68
2021/09/16 03:35:59;;;;;;;22.60;15.68;;;;;;;23.52;61.58;95258.34;5009249;28;20034;-68
2021/09/16 03:38:24;;;;;;;26.90;16.63;;;;;;;23.56;61.80;95259.94;5009327;28;20037;-68
2021/09/16 03:40:50;;;;;;;25.92;17.58;;;;;;;23.63;61.65;95261.09;5010832;28;20080;-69
2021/09/16 03:43:15;;;;;;;19.20;14.32;;;;;;;23.64;61.54;95263.44;5009364;28;20050;-68
2021/09/16 03:45:40;;;;;;;29.48;17.98;;;;;;;23.54;61.39;95245.16;5009430;28;20388;-69
2021/09/16 03:48:07;;;;;;;21.10;15.07;;;;;;;23.60;61.33;95268.88;5008410;28;20554;-69
2021/09/16 03:50:33;;;;;;;22.92;15.63;;;;;;;23.56;61.54;95259.16;5008718;28;20530;-69
2021/09/16 03:52:58;;;;;;;18.17;12.65;;;;;;;23.58;61.65;95257.59;5010816;28;20034;-70
2021/09/16 03:55:23;;;;;;;16.88;13.05;;;;;;;23.57;61.48;95252.56;5009281;28;20128;-68
2021/09/16 03:57:49;;;;;;;14.38;11.45;;;;;;;23.70;61.06;95272.00;5009157;28;20399;-69
2021/09/16 04:00:15;;;;;;;17.42;12.70;;;;;;;23.60;61.42;95251.78;5008743;28;20038;-68
2021/09/16 04:02:40;;;;;;;23.13;16.77;;;;;;;23.57;61.43;95242.47;4990579;28;20411;-69
2021/09/16 04:05:06;;;;;;;23.65;15.50;;;;;;;23.73;61.22;95260.38;5008811;28;20033;-68
2021/09/16 04:07:31;;;;;;;24.10;16.23;;;;;;;23.92;60.74;95267.38;5011003;28;20430;-68
2021/09/16 04:09:57;;;;;;;20.70;14.32;;;;;;;23.76;60.86;95254.19;5008509;28;20042;-69
2021/09/16 04:12:22;;;;;;;26.20;14.77;;;;;;;23.69;61.16;95251.44;5008520;28;20407;-69
2021/09/16 04:14:48;;;;;;;19.48;16.17;;;;;;;23.73;60.94;95261.16;5008748;28;20034;-68
2021/09/16 04:17:13;;;;;;;14.93;12.93;;;;;;;23.66;60.87;95255.72;4991062;28;20686;-69
2021/09/16 04:19:39;;;;;;;15.82;12.20;;;;;;;23.63;61.05;95255.66;5009874;28;20033;-68
2021/09/16 04:22:04;;;;;;;19.35;14.50;;;;;;;23.59;60.87;95250.22;5008315;28;20128;-68
2021/09/16 04:24:30;;;;;;;23.13;14.48;;;;;;;23.57;61.22;95245.19;5007470;28;20042;-68
2021/09/16 04:26:55;;;;;;;21.52;15.15;;;;;;;23.57;60.95;95244.41;5007437;28;20492;-68
2021/09/16 04:29:21;;;;;;;15.57;12.43;;;;;;;23.58;61.04;95246.72;5008065;28;20496;-69
2021/09/16 04:31:46;;;;;;;20.38;14.75;;;;;;;23.53;61.10;95240.91;5009934;28;20463;-69
2021/09/16 04:34:11;;;;;;;27.75;14.45;;;;;;;23.48;61.10;95223.03;5007697;28;20125;-69
2021/09/16 04:36:37;;;;;;;19.92;14.68;;;;;;;23.54;61.09;95234.31;5008297;28;20558;-68
2021/09/16 04:39:06;;;;;;;14.13;12.45;;;;;;;23.40;61.25;95226.94;5007741;28;20069;-69
2021/09/16 04:41:32;;;;;;;22.17;14.88;;;;;;;23.49;61.18;95240.09;5008868;28;20109;-68
2021/09/16 04:43:58;;;;;;;18.05;13.32;;;;;;;23.57;61.20;95255.28;5010391;28;20416;-68
2021/09/16 04:46:24;;;;;;;17.63;13.88;;;;;;;23.57;60.99;95241.69;5008259;28;20499;-68
2021/09/16 04:48:49;;;;;;;15.77;12.15;;;;;;;23.53;60.99;95232.75;4989943;28;20057;-70
2021/09/16 04:51:15;;;;;;;19.88;14.52;;;;;;;23.52;61.19;95233.94;5006485;28;20034;-66
2021/09/16 04:53:40;;;;;;;32.80;19.45;;;;;;;23.63;60.95;95245.59;5000779;28;20050;-66
2021/09/16 04:56:05;;;;;;;16.33;13.40;;;;;;;23.65;61.27;95242.50;5007931;28;20628;-64
2021/09/16 04:58:31;;;;;;;20.63;15.15;;;;;;;23.75;61.21;95253.41;5009520;28;20022;-66
2021/09/16 05:00:56;;;;;;;21.50;15.45;;;;;;;23.79;60.99;95256.09;5007303;28;20044;-65
2021/09/16 05:03:21;;;;;;;21.83;14.48;;;;;;;23.71;60.84;95239.03;5005803;28;20065;-70
2021/09/16 05:05:47;;;;;;;21.60;16.42;;;;;;;23.89;61.22;95258.06;4985043;28;20030;-62
2021/09/16 05:08:13;;;;;;;17.58;13.82;;;;;;;23.91;61.49;95254.97;4995375;28;20408;-68
2021/09/16 05:10:39;;;;;;;13.77;11.80;;;;;;;23.92;61.03;95251.09;4988535;28;20237;-69
2021/09/16 05:13:04;;;;;;;22.92;14.48;;;;;;;23.93;60.88;95250.69;4987219;28;20133;-70
2021/09/16 05:15:30;;;;;;;14.90;11.43;;;;;;;24.04;60.88;95264.28;5001228;28;20041;-69
2021/09/16 05:17:55;;;;;;;14.68;11.02;;;;;;;24.05;60.80;95271.28;4990395;28;20070;-69
2021/09/16 05:20:21;;;;;;;15.60;12.02;;;;;;;24.06;61.23;95273.63;5006957;28;20030;-70
2021/09/16 05:22:46;;;;;;;24.10;14.02;;;;;;;24.07;61.37;95274.41;5000959;28;20072;-73
2021/09/16 05:25:11;;;;;;;13.23;11.88;;;;;;;24.06;61.33;95268.19;5007836;28;20628;-77
2021/09/16 05:27:37;;;;;;;28.58;16.45;;;;;;;24.04;60.68;95265.06;5008226;28;20064;-70
2021/09/16 05:30:04;;;;;;;20.17;14.85;;;;;;;23.90;61.06;95242.53;4989484;28;20040;-71
2021/09/16 05:32:29;;;;;;;15.82;11.95;;;;;;;24.10;61.16;95273.59;5007032;28;20042;-71
2021/09/16 05:34:55;;;;;;;21.70;15.35;;;;;;;24.17;61.19;95273.63;5009295;28;20029;-69
2021/09/16 05:37:21;;;;;;;21.50;13.48;;;;;;;24.15;61.46;95286.03;5011239;28;20049;-70
2021/09/16 05:39:47;;;;;;;17.35;12.75;;;;;;;24.11;61.34;95278.66;4993630;28;20042;-71
2021/09/16 05:42:12;;;;;;;24.48;16.00;;;;;;;24.10;61.11;95279.81;5011540;28;20117;-72
2021/09/16 05:44:38;;;;;;;17.90;13.15;;;;;;;24.15;61.55;95284.09;5011035;28;20046;-72
2021/09/16 05:47:04;;;;;;;15.45;11.25;;;;;;;24.07;61.33;95277.13;5011021;28;20038;-66
2021/09/16 05:49:29;;;;;;;6.82;5.72;;;;;;;24.09;61.19;95277.50;4994990;28;20034;-68
2021/09/16 05:51:54;;;;;;;12.10;10.30;;;;;;;24.24;61.55;95276.31;5011023;28;20177;-70
2021/09/16 05:54:20;;;;;;;14.15;11.25;;;;;;;24.32;61.23;95274.41;5010638;28;20546;-69
2021/09/16 05:56:47;;;;;;;12.18;10.65;;;;;;;24.38;61.34;95273.66;5011390;28;20133;-70
2021/09/16 05:59:13;;;;;;;17.45;12.82;;;;;;;24.47;61.42;95280.63;5010859;28;20447;-69
2021/09/16 06:01:38;;;;;;;16.02;12.38;;;;;;;24.56;61.15;95291.88;5013252;28;20029;-70
2021/09/16 06:04:03;;;;;;;16.38;11.52;;;;;;;24.62;60.95;95295.78;4993175;28;20046;-72
2021/09/16 06:06:29;;;;;;;12.02;8.23;;;;;;;24.72;60.84;95300.44;5011221;28;20054;-71
2021/09/16 06:08:54;;;;;;;10.23;9.23;;;;;;;24.73;60.64;95291.09;5010741;28;20754;-71
2021/09/16 06:11:19;;;;;;;12.30;8.57;;;;;;;24.84;60.23;95289.13;5009627;28;20454;-67
2021/09/16 06:13:45;;;;;;;9.88;8.75;;;;;;;25.00;60.16;95293.38;5012492;28;20117;-67
2021/09/16 06:16:10;;;;;;;15.02;10.27;;;;;;;25.17;60.02;95289.81;5010826;28;20042;-69
2021/09/16 06:18:36;;;;;;;10.55;8.10;;;;;;;25.26;60.00;95295.63;4992043;28;20655;-69
2021/09/16 06:21:02;;;;;;;8.13;6.85;;;;;;;25.34;59.76;95291.72;5010154;28;20049;-67
2021/09/16 06:23:28;;;;;;;5.88;5.28;;;;;;;25.32;59.31;95290.56;5017212;28;20034;-66
2021/09/16 06:25:53;;;;;;;5.70;4.63;;;;;;;25.36;59.22;95297.53;5012497;28;20456;-66
2021/09/16 06:28:18;;;;;;;8.38;5.85;;;;;;;25.42;59.38;95297.91;5010564;28;20121;-66
2021/09/16 06:30:44;;;;;;;6.55;5.95;;;;;;;25.42;59.40;95282.34;5010315;28;20403;-66
2021/09/16 06:33:13;;;;;;;7.00;5.95;;;;;;;25.49;59.41;95288.91;5009383;28;20113;-65
2021/09/16 06:35:38;;;;;;;8.43;5.53;;;;;;;25.58;59.32;95297.44;5010379;28;20180;-66
2021/09/16 06:38:04;;;;;;;5.97;5.47;;;;;;;25.59;59.09;95286.16;5010564;28;20109;-67
2021/09/16 06:40:29;;;;;;;6.80;5.03;;;;;;;25.68;59.19;95299.34;5011826;28;20131;-67
2021/09/16 06:42:54;;;;;;;6.55;4.80;;;;;;;25.62;59.38;95284.59;5010015;28;20033;-68
2021/09/16 06:45:20;;;;;;;6.88;6.28;;;;;;;25.63;58.83;95288.84;4992770;28;20041;-67
2021/09/16 06:47:45;;;;;;;7.43;4.97;;;;;;;25.66;59.26;95293.50;4991256;28;20724;-67
2021/09/16 06:50:10;;;;;;;5.10;4.53;;;;;;;25.68;59.15;95286.47;5009254;28;20030;-66
2021/09/16 06:52:36;;;;;;;7.22;6.53;;;;;;;25.64;58.74;95285.75;5012003;28;20018;-67
2021/09/16 06:55:01;;;;;;;8.73;6.65;;;;;;;25.68;59.56;95285.72;5010301;28;20041;-67
2021/09/16 06:57:27;;;;;;;6.30;5.70;;;;;;;25.85;59.70;95295.78;5008637;28;20037;-68
2021/09/16 06:59:52;;;;;;;6.53;5.43;;;;;;;26.03;59.36;95294.88;5009363;28;20038;-68
2021/09/16 07:02:17;;;;;;;5.50;5.00;;;;;;;26.29;58.66;95301.69;5009565;28;20045;-68
2021/09/16 07:04:43;;;;;;;6.50;4.55;;;;;;;26.41;58.45;95296.56;4994097;28;20379;-67
2021/09/16 07:07:08;;;;;;;7.53;4.88;;;;;;;26.67;58.45;95299.88;5001193;28;20030;-69
2021/09/16 07:09:34;;;;;;;4.45;4.05;;;;;;;26.96;58.04;95309.31;4988676;28;20543;-69
2021/09/16 07:11:59;;;;;;;6.18;4.00;;;;;;;27.07;57.79;95295.56;4990504;28;20097;-68
2021/09/16 07:14:26;;;;;;;4.60;3.53;;;;;;;27.34;56.92;95314.03;4990204;28;20049;-68
2021/09/16 07:16:53;;;;;;;3.92;3.47;;;;;;;27.49;57.03;95293.53;4992293;28;20018;-68
2021/09/16 07:19:18;;;;;;;3.85;3.35;;;;;;;27.68;56.15;95311.25;5007525;28;20080;-69
2021/09/16 07:21:44;;;;;;;3.75;3.25;;;;;;;27.96;55.54;95310.13;5009885;28;20046;-69
2021/09/16 07:24:10;;;;;;;4.45;3.50;;;;;;;28.25;55.71;95310.47;5009573;28;20038;-69
2021/09/16 07:26:36;;;;;;;5.07;3.72;;;;;;;28.38;55.20;95300.53;5010102;28;20450;-69
2021/09/16 07:29:02;;;;;;;3.70;2.97;;;;;;;28.65;54.99;95316.88;5011314;28;20057;-68
2021/09/16 07:31:29;;;;;;;4.78;2.90;;;;;;;28.44;54.99;95271.50;5009791;28;20034;-68
2021/09/16 07:33:55;;;;;;;3.97;3.08;;;;;;;28.66;54.98;95290.28;5008058;28;20061;-69
2021/09/16 07:36:20;;;;;;;3.72;3.08;;;;;;;28.75;54.46;95315.16;5009824;28;20061;-69
2021/09/16 07:38:47;;;;;;;5.28;3.05;;;;;;;28.74;54.57;95316.34;5009467;28;20046;-68
2021/09/16 07:41:13;;;;;;;3.15;2.90;;;;;;;28.74;54.77;95308.91;5009760;28;20057;-68
2021/09/16 07:43:38;;;;;;;3.67;3.30;;;;;;;28.68;53.93;95309.81;5011472;28;20448;-68
2021/09/16 07:46:03;;;;;;;4.43;3.30;;;;;;;28.63;54.54;95316.53;5009925;28;20041;-69
2021/09/16 07:48:29;;;;;;;3.80;3.03;;;;;;;28.44;54.33;95306.28;5008633;28;20560;-69
2021/09/16 07:50:54;;;;;;;3.28;2.97;;;;;;;28.40;54.27;95311.03;5008842;28;20042;-69
2021/09/16 07:53:20;;;;;;;4.50;2.83;;;;;;;27.88;54.83;95320.38;5008559;28;20025;-68
2021/09/16 07:55:47;;;;;;;4.38;3.47;;;;;;;27.93;54.88;95311.72;5011091;28;20026;-69
2021/09/16 07:58:13;;;;;;;4.45;3.63;;;;;;;27.99;54.92;95325.69;5008752;28;20543;-68
2021/09/16 08:00:38;;;;;;;6.60;4.43;;;;;;;27.97;55.51;95319.88;5008318;28;20141;-69
2021/09/16 08:03:03;;;;;;;4.05;3.38;;;;;;;27.87;55.09;95302.44;5008428;28;20083;-68
2021/09/16 08:05:29;;;;;;;4.25;3.85;;;;;;;27.79;55.36;95305.66;5008467;28;20057;-68
2021/09/16 08:07:54;;;;;;;4.38;3.70;;;;;;;27.83;55.50;95326.28;5000972;28;20049;-69
2021/09/16 08:10:20;;;;;;;6.43;4.35;;;;;;;27.65;55.05;95331.22;5008405;28;20671;-68
2021/09/16 08:12:45;;;;;;;5.18;3.90;;;;;;;27.38;54.32;95326.47;5008470;28;20030;-68
2021/09/16 08:15:11;;;;;;;4.22;3.90;;;;;;;27.40;56.35;95334.25;5008796;28;20046;-68
2021/09/16 08:17:37;;;;;;;4.55;4.05;;;;;;;27.31;56.66;95318.31;5008694;28;20034;-68
2021/09/16 08:20:06;;;;;;;4.78;4.00;;;;;;;27.35;56.10;95331.97;5009832;28;20029;-69
2021/09/16 08:22:31;;;;;;;4.57;3.70;;;;;;;27.35;56.97;95321.81;5000793;28;20038;-68
2021/09/16 08:24:57;;;;;;;5.53;4.40;;;;;;;27.37;56.92;95324.88;5008527;28;20049;-69
2021/09/16 08:27:22;;;;;;;5.32;4.18;;;;;;;27.39;56.40;95327.22;5007274;28;20041;-69
2021/09/16 08:29:48;;;;;;;5.22;4.00;;;;;;;27.37;56.12;95318.66;5008147;28;20124;-69
2021/09/16 08:32:13;;;;;;;4.60;4.20;;;;;;;27.53;56.10;95323.53;5008354;28;20416;-69
2021/09/16 08:34:40;;;;;;;5.47;4.35;;;;;;;27.69;55.76;95338.19;5009490;28;20109;-68
2021/09/16 08:37:05;;;;;;;4.35;3.95;;;;;;;27.72;55.42;95320.19;5008618;28;20034;-69
2021/09/16 08:39:31;;;;;;;4.47;4.00;;;;;;;27.97;55.72;95317.91;5008413;28;20129;-69
2021/09/16 08:41:56;;;;;;;4.00;3.60;;;;;;;28.10;55.02;95323.59;5008800;28;20666;-69
2021/09/16 08:44:22;;;;;;;4.38;3.97;;;;;;;28.32;55.42;95310.38;5008585;28;20053;-69
2021/09/16 08:46:47;;;;;;;5.55;3.67;;;;;;;28.57;55.21;95322.91;5010145;28;20026;-70
2021/09/16 08:49:13;;;;;;;5.32;4.18;;;;;;;28.76;53.39;95322.94;5007280;28;20676;-68
2021/09/16 08:51:39;;;;;;;5.20;3.35;;;;;;;29.06;54.57;95334.97;5007922;28;20542;-69
2021/09/16 08:54:07;;;;;;;7.55;3.25;;;;;;;29.22;52.96;95331.56;5007946;28;20034;-68
2021/09/16 08:56:33;;;;;;;3.90;3.58;;;;;;;29.34;53.16;95313.75;5008030;28;20049;-68
2021/09/16 08:59:03;;;;;;;3.40;3.03;;;;;;;29.44;50.30;95312.75;5024678;28;20018;-69
2021/09/16 09:01:29;;;;;;;3.45;3.15;;;;;;;29.70;52.79;95322.81;5006972;28;20123;-68
2021/09/16 09:03:54;;;;;;;4.28;3.50;;;;;;;29.85;52.33;95320.53;5007691;28;20062;-68
2021/09/16 09:06:32;;;;;;;4.70;3.00;;;;;;;29.87;51.10;95320.88;5008199;28;20577;-69
2021/09/16 09:09:18;;;;;;;6.88;3.10;;;;;;;29.87;52.14;95315.41;5007706;28;20173;-68
2021/09/16 09:12:05;;;;;;;5.25;3.13;;;;;;;29.75;50.49;95324.28;5006877;28;20038;-70
2021/09/16 09:14:33;;;;;;;5.22;3.30;;;;;;;29.76;51.53;95320.34;5007141;28;20045;-68
2021/09/16 09:17:01;;;;;;;3.60;3.30;;;;;;;29.76;52.19;95314.84;5009686;28;20028;-69
2021/09/16 09:19:29;;;;;;;5.25;3.70;;;;;;;29.88;52.37;95319.69;5006646;28;20388;-69
2021/09/16 09:21:58;;;;;;;4.15;3.20;;;;;;;29.67;51.23;95314.66;5007178;28;20046;-69
2021/09/16 09:24:45;;;;;;;6.97;4.78;;;;;;;29.78;52.86;95312.44;5007156;28;20084;-68
2021/09/16 09:27:27;;;;;;;4.13;3.38;;;;;;;29.94;52.64;95318.00;5007765;28;20041;-69
2021/09/16 09:30:08;;;;;;;6.40;3.28;;;;;;;30.02;52.32;95313.88;5007071;28;20038;-68
2021/09/16 09:32:43;;;;;;;3.47;3.00;;;;;;;30.00;52.12;95313.56;5006815;28;20100;-66
2021/09/16 09:35:23;;;;;;;3.63;3.05;;;;;;;29.85;51.41;95304.09;5010493;28;20041;-67
2021/09/16 09:37:49;;;;;;;3.08;2.83;;;;;;;29.73;51.80;95305.50;5014567;28;20022;-68
2021/09/16 09:40:14;;;;;;;4.20;3.55;;;;;;;29.44;52.11;95299.81;5006901;28;20042;-65
2021/09/16 09:42:40;;;;;;;4.80;3.60;;;;;;;29.38;52.79;95309.75;5007398;28;20117;-67
2021/09/16 09:45:08;;;;;;;4.68;3.60;;;;;;;29.28;52.49;95313.47;5007595;28;20046;-67
2021/09/16 09:47:46;;;;;;;4.38;3.58;;;;;;;29.03;51.58;95315.91;5007614;28;20030;-66
2021/09/16 09:50:23;;;;;;;3.88;3.58;;;;;;;29.08;53.45;95318.91;5006369;28;20095;-70
2021/09/16 09:52:50;;;;;;;5.43;3.42;;;;;;;29.07;53.94;95308.38;5009138;28;20116;-71
2021/09/16 09:55:18;;;;;;;4.80;3.35;;;;;;;29.00;54.20;95301.84;5007382;28;20050;-68
2021/09/16 09:57:44;;;;;;;3.95;3.40;;;;;;;28.97;53.58;95307.38;5007036;28;20642;-67
2021/09/16 10:00:16;;;;;;;5.28;3.78;;;;;;;29.01;53.79;95300.63;5007168;28;20805;-65
2021/09/16 10:02:50;;;;;;;5.45;3.47;;;;;;;29.29;53.53;95309.53;5007117;28;20061;-66
2021/09/16 10:05:28;;;;;;;4.53;3.70;;;;;;;29.40;52.16;95306.56;4989352;28;20054;-66
2021/09/16 10:08:09;;;;;;;4.38;3.97;;;;;;;29.35;52.69;95316.06;5009320;28;20025;-65
2021/09/16 10:10:36;;;;;;;4.40;3.63;;;;;;;29.20;52.53;95301.09;4988003;28;20052;-66
2021/09/16 10:13:02;;;;;;;4.43;3.22;;;;;;;29.06;53.13;95296.63;4987413;28;20043;-66
2021/09/16 10:15:27;;;;;;;3.92;3.50;;;;;;;29.10;52.90;95304.78;4988028;28;20038;-70
2021/09/16 10:17:53;;;;;;;4.78;3.45;;;;;;;29.16;53.33;95301.13;4987846;28;20089;-71
2021/09/16 10:20:21;;;;;;;3.65;3.35;;;;;;;29.23;52.83;95316.69;5004589;28;20120;-70
2021/09/16 10:22:49;;;;;;;3.97;3.30;;;;;;;29.25;52.42;95309.56;5011235;28;20025;-71
2021/09/16 10:25:17;;;;;;;5.28;3.50;;;;;;;29.37;52.16;95308.16;5010872;28;20041;-70
2021/09/16 10:27:45;;;;;;;3.75;3.35;;;;;;;29.62;52.61;95317.88;5010982;28;20037;-70
2021/09/16 10:30:23;;;;;;;5.68;3.58;;;;;;;29.80;52.06;95310.06;5010383;28;20030;-70
2021/09/16 10:33:10;;;;;;;6.50;3.95;;;;;;;29.96;52.06;95312.06;5010616;28;20034;-70
2021/09/16 10:35:40;;;;;;;4.85;3.70;;;;;;;30.08;50.96;95305.16;5003380;28;20033;-71
2021/09/16 10:38:43;;;;;;;3.42;3.17;;;;;;;30.36;50.64;95306.50;5010704;28;20038;-70
2021/09/16 10:41:15;;;;;;;4.40;3.53;;;;;;;30.46;50.46;95303.50;5010417;28;20077;-71
2021/09/16 10:43:43;;;;;;;4.45;3.55;;;;;;;30.58;50.07;95293.03;5027389;28;20033;-69
2021/09/16 10:46:40;;;;;;;4.28;3.30;;;;;;;30.71;50.27;95302.13;5010553;28;20034;-69
2021/09/16 10:49:21;;;;;;;4.57;3.38;;;;;;;30.59;50.65;95298.06;5002915;28;20049;-69
2021/09/16 10:52:09;;;;;;;3.88;3.22;;;;;;;30.38;48.47;95301.34;4995023;28;20061;-69
2021/09/16 10:54:39;;;;;;;3.90;3.53;;;;;;;30.32;48.81;95303.06;5001865;28;20449;-68
2021/09/16 10:57:07;;;;;;;7.65;4.75;;;;;;;30.15;48.77;95302.25;5010145;28;20058;-69
2021/09/16 10:59:51;;;;;;;5.88;5.20;;;;;;;30.02;49.04;95291.94;5009617;28;20639;-70
2021/09/16 11:02:35;;;;;;;3.85;3.47;;;;;;;29.88;50.58;95278.53;5009995;28;20531;-69
2021/09/16 11:05:02;;;;;;;4.20;3.70;;;;;;;29.93;50.71;95290.97;5011400;28;20032;-69
2021/09/16 11:07:34;;;;;;;4.75;3.88;;;;;;;29.93;51.16;95286.25;5009721;28;20037;-70
2021/09/16 11:10:20;;;;;;;;;;;;;;;29.80;50.01;95284.63;5009615;28;20608;-69
2021/09/16 11:12:48;;;;;;;5.65;3.95;;;;;;;29.69;51.03;95282.13;5009606;28;19964;-68
2021/09/16 11:15:17;;;;;;;4.10;3.70;;;;;;;29.71;50.96;95287.94;5009837;28;20042;-69
2021/09/16 11:17:43;;;;;;;6.03;3.83;;;;;;;29.65;49.10;95286.91;5009951;28;20031;-70
2021/09/16 11:20:13;;;;;;;5.43;4.40;;;;;;;29.71;51.16;95291.44;5008722;28;20472;-70
2021/09/16 11:22:39;;;;;;;5.55;4.40;;;;;;;29.82;50.75;95274.75;5011004;28;20507;-69
2021/09/16 11:25:07;;;;;;;4.47;4.07;;;;;;;30.02;49.78;95275.47;5009761;28;20034;-70